createdAt,value
2019-03-27T00:01:08.392Z,6.27
2019-03-27T00:06:11.091Z,6.63
2019-03-27T00:11:16.243Z,6.37
2019-03-27T00:16:19.644Z,5.93
2019-03-27T00:21:23.187Z,6.43
2019-03-27T00:26:28.729Z,5.67
2019-03-27T00:31:33.118Z,5.17
2019-03-27T00:36:39.105Z,5.93
2019-03-27T00:41:41.762Z,6.53
2019-03-27T00:46:44.665Z,6.13
2019-03-27T00:51:47.231Z,5.30
2019-03-27T00:56:49.912Z,5.43
2019-03-27T01:01:52.743Z,6.17
2019-03-27T01:06:58.482Z,5.10
2019-03-27T01:12:01.088Z,5.50
2019-03-27T01:17:06.655Z,5.50
2019-03-27T01:22:09.201Z,5.33
2019-03-27T01:27:11.798Z,5.40
2019-03-27T01:32:18.901Z,5.13
2019-03-27T01:37:21.603Z,4.47
2019-03-27T01:42:24.170Z,4.30
2019-03-27T01:47:29.773Z,4.87
2019-03-27T01:52:37.869Z,4.67
2019-03-27T01:57:42.690Z,4.83
2019-03-27T02:02:47.995Z,5.17
2019-03-27T02:07:50.583Z,4.83
2019-03-27T02:12:58.365Z,5.10
2019-03-27T02:18:00.954Z,5.53
2019-03-27T02:23:03.553Z,5.40
2019-03-27T02:28:06.174Z,4.97
2019-03-27T02:33:08.995Z,5.23
2019-03-27T02:38:11.559Z,5.27
2019-03-27T02:43:14.105Z,5.53
2019-03-27T02:48:16.672Z,4.73
2019-03-27T02:53:19.377Z,5.33
2019-03-27T02:58:21.972Z,5.20
2019-03-27T03:03:26.935Z,4.80
2019-03-27T03:08:29.556Z,5.07
2019-03-27T03:13:32.236Z,5.97
2019-03-27T03:18:39.578Z,6.10
2019-03-27T03:23:42.331Z,5.23
2019-03-27T03:28:47.940Z,5.63
2019-03-27T03:33:50.622Z,5.43
2019-03-27T03:38:53.161Z,5.83
2019-03-27T03:43:55.785Z,6.03
2019-03-27T03:48:58.382Z,6.00
2019-03-27T03:54:01.687Z,6.23
2019-03-27T03:59:05.160Z,6.87
2019-03-27T04:04:09.312Z,5.87
2019-03-27T04:09:13.079Z,7.33
2019-03-27T04:14:15.674Z,7.00
2019-03-27T04:19:20.806Z,6.57
2019-03-27T04:24:26.352Z,6.47
2019-03-27T04:29:30.088Z,7.20
2019-03-27T04:34:35.891Z,7.53
2019-03-27T04:39:38.437Z,7.10
2019-03-27T04:44:43.712Z,7.53
2019-03-27T04:49:46.249Z,7.60
2019-03-27T04:54:49.004Z,8.73
2019-03-27T04:59:51.590Z,8.43
2019-03-27T05:04:56.568Z,9.33
2019-03-27T05:09:59.163Z,9.97
2019-03-27T05:15:01.962Z,10.30
2019-03-27T05:20:06.018Z,9.87
2019-03-27T05:25:09.089Z,9.57
2019-03-27T05:30:13.463Z,9.13
2019-03-27T05:35:17.752Z,9.33
2019-03-27T05:40:20.323Z,10.60
2019-03-27T05:45:23.206Z,10.27
2019-03-27T05:50:25.773Z,10.10
2019-03-27T05:55:28.479Z,10.23
2019-03-27T06:00:33.415Z,10.40
2019-03-27T06:05:35.783Z,10.20
2019-03-27T06:10:38.332Z,10.97
2019-03-27T06:15:44.992Z,11.27
2019-03-27T06:20:46.881Z,10.73
2019-03-27T06:25:49.583Z,11.27
2019-03-27T06:30:52.201Z,12.27
2019-03-27T06:35:55.073Z,12.10
2019-03-27T06:40:57.766Z,12.80
2019-03-27T06:46:00.663Z,11.73
2019-03-27T06:51:03.448Z,12.93
2019-03-27T06:56:06.095Z,12.07
2019-03-27T07:01:08.732Z,11.63
2019-03-27T07:06:11.678Z,11.87
2019-03-27T07:11:14.268Z,11.77
2019-03-27T07:16:19.392Z,10.80
2019-03-27T07:21:22.053Z,10.40
2019-03-27T07:26:27.605Z,11.17
2019-03-27T07:31:30.163Z,11.88
2019-03-27T07:36:33.114Z,9.90
2019-03-27T07:41:36.168Z,9.13
2019-03-27T07:46:38.813Z,9.00
2019-03-27T07:51:42.841Z,9.63
2019-03-27T07:56:45.569Z,9.10
2019-03-27T08:01:51.035Z,9.47
2019-03-27T08:06:55.334Z,7.90
2019-03-27T08:11:58.533Z,7.67
2019-03-27T08:17:03.360Z,6.97
2019-03-27T08:22:08.350Z,5.00
2019-03-27T08:27:15.271Z,5.43
2019-03-27T08:32:17.766Z,3.90
2019-03-27T08:37:20.345Z,4.60
2019-03-27T08:42:23.377Z,5.90
2019-03-27T08:47:28.739Z,6.43
2019-03-27T08:52:31.844Z,5.40
2019-03-27T08:57:34.440Z,8.27
2019-03-27T09:02:40.441Z,5.57
2019-03-27T09:07:43.014Z,4.67
2019-03-27T09:12:52.073Z,5.07
2019-03-27T09:17:56.113Z,4.70
2019-03-27T09:22:59.816Z,4.23
2019-03-27T09:28:07.499Z,4.23
2019-03-27T09:33:10.426Z,4.60
2019-03-27T09:38:12.979Z,4.83
2019-03-27T09:43:17.897Z,4.87
2019-03-27T09:48:20.665Z,5.17
2019-03-27T09:53:24.679Z,4.20
2019-03-27T09:58:29.368Z,6.40
2019-03-27T10:03:34.929Z,5.90
2019-03-27T10:08:37.915Z,6.70
2019-03-27T10:13:41.022Z,5.27
2019-03-27T10:18:43.639Z,4.90
2019-03-27T10:23:49.679Z,5.23
2019-03-27T10:28:52.443Z,6.07
2019-03-27T10:33:55.187Z,5.20
2019-03-27T10:38:57.747Z,4.83
2019-03-27T10:44:00.320Z,5.70
2019-03-27T10:49:02.888Z,5.23
2019-03-27T10:54:07.335Z,5.80
2019-03-27T10:59:13.081Z,5.80
2019-03-27T11:04:16.814Z,6.33
2019-03-27T11:09:19.503Z,6.37
2019-03-27T11:14:22.334Z,6.27
2019-03-27T11:19:25.098Z,6.57
2019-03-27T11:24:28.110Z,7.00
2019-03-27T11:29:30.719Z,6.77
2019-03-27T11:34:36.431Z,6.47
2019-03-27T11:39:39.327Z,6.30
2019-03-27T11:44:42.327Z,7.00
2019-03-27T11:49:47.661Z,7.00
2019-03-27T11:54:52.946Z,7.97
2019-03-27T11:59:57.015Z,7.47
2019-03-27T12:05:01.683Z,7.67
2019-03-27T12:10:05.874Z,7.70
2019-03-27T12:15:09.192Z,7.03
2019-03-27T12:20:13.358Z,7.07
2019-03-27T12:25:16.573Z,7.10
2019-03-27T12:30:21.101Z,7.07
2019-03-27T12:35:25.346Z,6.77
2019-03-27T12:40:28.005Z,7.13
2019-03-27T12:45:31.212Z,7.47
2019-03-27T12:50:35.790Z,6.77
2019-03-27T12:55:38.501Z,6.23
2019-03-27T13:00:41.589Z,7.37
2019-03-27T13:05:50.431Z,6.93
2019-03-27T13:10:54.056Z,7.00
2019-03-27T13:15:56.891Z,7.93
2019-03-27T13:20:59.859Z,8.00
2019-03-27T13:26:02.464Z,7.27
2019-03-27T13:31:06.620Z,7.00
2019-03-27T13:36:12.334Z,7.10
2019-03-27T13:41:15.058Z,7.60
2019-03-27T13:46:17.731Z,6.90
2019-03-27T13:51:20.393Z,7.10
2019-03-27T13:56:23.255Z,6.67
2019-03-27T14:01:25.835Z,6.10
2019-03-27T14:06:28.915Z,6.97
2019-03-27T14:11:31.544Z,6.70
2019-03-27T14:16:34.557Z,5.80
2019-03-27T14:21:37.290Z,5.60
2019-03-27T14:26:45.376Z,5.93
2019-03-27T14:31:44.627Z,5.30
2019-03-27T14:36:47.329Z,5.47
2019-03-27T14:41:51.019Z,5.60
2019-03-27T14:46:56.229Z,5.87
2019-03-27T14:52:08.056Z,5.83
2019-03-27T14:57:03.840Z,5.57
2019-03-27T15:02:09.691Z,5.60
2019-03-27T15:07:12.424Z,5.20
2019-03-27T15:12:17.780Z,5.03
2019-03-27T15:17:20.442Z,4.57
2019-03-27T15:22:23.605Z,4.63
2019-03-27T15:27:26.509Z,4.60
2019-03-27T15:32:29.169Z,3.90
2019-03-27T15:37:31.748Z,4.80
2019-03-27T15:42:36.135Z,4.60
2019-03-27T15:47:38.851Z,4.73
2019-03-27T15:52:41.520Z,5.20
2019-03-27T15:57:44.140Z,4.43
2019-03-27T16:02:52.937Z,4.20
2019-03-27T16:07:56.745Z,4.10
2019-03-27T16:12:59.410Z,4.10
2019-03-27T16:18:02.192Z,4.40
2019-03-27T16:23:07.252Z,3.70
2019-03-27T16:28:09.813Z,3.63
2019-03-27T16:33:12.769Z,3.70
2019-03-27T16:38:15.399Z,3.50
2019-03-27T16:43:18.864Z,3.20
2019-03-27T16:48:21.541Z,3.93
2019-03-27T16:53:24.706Z,3.73
2019-03-27T16:58:27.597Z,3.60
2019-03-27T17:03:30.268Z,3.80
2019-03-27T17:08:32.827Z,3.60
2019-03-27T17:13:35.736Z,4.17
2019-03-27T17:18:38.532Z,4.13
2019-03-27T17:23:41.227Z,4.33
2019-03-27T17:28:43.970Z,4.50
2019-03-27T17:33:46.701Z,4.40
2019-03-27T17:38:49.272Z,4.93
2019-03-27T17:43:52.087Z,5.30
2019-03-27T17:48:54.834Z,5.53
2019-03-27T17:53:57.695Z,5.53
2019-03-27T17:59:00.252Z,5.70
2019-03-27T18:04:02.979Z,5.60
2019-03-27T18:09:07.453Z,7.03
2019-03-27T18:14:10.655Z,8.27
2019-03-27T18:19:14.451Z,7.17
2019-03-27T18:24:17.049Z,7.97
2019-03-27T18:29:22.938Z,7.37
2019-03-27T18:34:30.718Z,8.33
2019-03-27T18:39:33.397Z,8.10
2019-03-27T18:44:36.243Z,7.90
2019-03-27T18:49:40.724Z,7.90
2019-03-27T18:54:43.633Z,8.10
2019-03-27T18:59:47.298Z,8.50
2019-03-27T19:04:50.387Z,7.93
2019-03-27T19:09:53.264Z,8.23
2019-03-27T19:14:56.097Z,8.63
2019-03-27T19:19:58.653Z,8.20
2019-03-27T19:25:01.365Z,8.07
2019-03-27T19:30:05.223Z,8.53
2019-03-27T19:35:08.391Z,8.50
2019-03-27T19:40:11.511Z,9.03
2019-03-27T19:45:14.252Z,8.43
2019-03-27T19:50:18.200Z,9.13
2019-03-27T19:55:20.930Z,9.40
2019-03-27T20:00:23.796Z,8.83
2019-03-27T20:05:31.180Z,9.10
2019-03-27T20:10:35.989Z,9.60
2019-03-27T20:15:38.715Z,10.00
2019-03-27T20:20:41.374Z,10.57
2019-03-27T20:25:46.820Z,10.73
2019-03-27T20:30:49.547Z,10.37
2019-03-27T20:35:52.472Z,11.23
2019-03-27T20:40:55.046Z,11.30
2019-03-27T20:45:58.004Z,10.80
2019-03-27T20:51:01.852Z,11.53
2019-03-27T20:56:04.572Z,12.60
2019-03-27T21:01:08.960Z,12.00
2019-03-27T21:06:11.913Z,12.13
2019-03-27T21:11:14.588Z,12.67
2019-03-27T21:16:18.168Z,13.63
2019-03-27T21:21:22.528Z,14.17
2019-03-27T21:26:25.150Z,15.13
2019-03-27T21:31:27.820Z,16.33
2019-03-27T21:36:33.497Z,16.97
2019-03-27T21:41:36.423Z,17.30
2019-03-27T21:46:39.640Z,16.97
2019-03-27T21:51:42.506Z,17.17
2019-03-27T21:56:45.289Z,16.37
2019-03-27T22:01:47.861Z,16.67
2019-03-27T22:06:50.566Z,18.27
2019-03-27T22:11:56.802Z,19.90
2019-03-27T22:16:59.640Z,19.33
2019-03-27T22:22:02.397Z,22.10
2019-03-27T22:27:05.039Z,20.73
2019-03-27T22:32:10.604Z,21.80
2019-03-27T22:37:13.201Z,20.77
2019-03-27T22:42:15.775Z,21.23
2019-03-27T22:47:21.405Z,22.90
2019-03-27T22:52:24.588Z,22.77
2019-03-27T22:57:29.468Z,22.70
2019-03-27T23:02:35.649Z,24.00
2019-03-27T23:07:38.190Z,23.13
2019-03-27T23:12:41.229Z,24.33
2019-03-27T23:17:43.904Z,24.23
2019-03-27T23:22:49.057Z,24.77
2019-03-27T23:27:51.621Z,24.30
2019-03-27T23:32:54.387Z,23.80
2019-03-27T23:37:57.185Z,25.37
2019-03-27T23:43:01.618Z,24.80
2019-03-27T23:48:04.258Z,25.33
2019-03-27T23:53:07.118Z,25.43
2019-03-27T23:58:09.790Z,27.20
